createdAt,value
2022-10-13T00:00:56.622Z,6.85
2022-10-13T00:03:23.361Z,6.75
2022-10-13T00:05:51.054Z,6.63
2022-10-13T00:08:20.904Z,7.85
2022-10-13T00:10:50.205Z,8.68
2022-10-13T00:13:17.327Z,8.13
2022-10-13T00:15:45.711Z,6.22
2022-10-13T00:18:13.067Z,4.63
2022-10-13T00:20:45.463Z,11.60
2022-10-13T00:23:13.850Z,11.90
2022-10-13T00:25:45.630Z,6.30
2022-10-13T00:28:13.454Z,9.15
2022-10-13T00:30:40.730Z,9.98
2022-10-13T00:33:08.878Z,6.93
2022-10-13T00:35:40.880Z,11.90
2022-10-13T00:38:07.406Z,10.55
2022-10-13T00:40:33.939Z,9.50
2022-10-13T00:43:00.586Z,8.07
2022-10-13T00:45:29.587Z,7.82
2022-10-13T00:48:00.602Z,14.55
2022-10-13T00:50:34.060Z,5.95
2022-10-13T00:53:01.659Z,6.90
2022-10-13T00:55:31.979Z,13.23
2022-10-13T00:58:05.245Z,6.28
2022-10-13T01:00:33.504Z,11.38
2022-10-13T01:03:01.524Z,8.98
2022-10-13T01:05:29.831Z,7.10
2022-10-13T01:07:57.358Z,5.95
2022-10-13T01:10:41.231Z,6.68
2022-10-13T01:13:40.741Z,13.27
2022-10-13T01:16:15.900Z,8.27
2022-10-13T01:19:15.953Z,6.37
2022-10-13T01:22:21.299Z,6.95
2022-10-13T01:25:03.553Z,8.15
2022-10-13T01:27:39.914Z,14.10
2022-10-13T01:30:20.492Z,6.32
2022-10-13T01:33:12.007Z,7.05
2022-10-13T01:35:47.399Z,7.50
2022-10-13T01:38:39.193Z,6.20
2022-10-13T01:41:15.633Z,6.13
2022-10-13T01:43:58.628Z,5.20
2022-10-13T01:46:31.019Z,7.22
2022-10-13T01:49:01.554Z,4.80
2022-10-13T01:51:30.540Z,8.50
2022-10-13T01:53:57.528Z,5.95
2022-10-13T01:56:24.297Z,6.80
2022-10-13T01:58:53.258Z,5.50
2022-10-13T02:01:55.633Z,9.07
2022-10-13T02:04:40.139Z,6.32
2022-10-13T02:07:12.710Z,5.28
2022-10-13T02:10:12.981Z,8.23
2022-10-13T02:13:06.256Z,4.90
2022-10-13T02:15:38.010Z,5.63
2022-10-13T02:18:05.362Z,6.80
2022-10-13T02:20:32.339Z,9.82
2022-10-13T02:23:04.521Z,8.80
2022-10-13T02:25:31.509Z,7.93
2022-10-13T02:28:00.829Z,7.10
2022-10-13T02:30:29.769Z,5.40
2022-10-13T02:32:56.399Z,6.53
2022-10-13T02:35:23.283Z,6.88
2022-10-13T02:37:49.836Z,9.07
2022-10-13T02:40:16.553Z,8.90
2022-10-13T02:42:43.358Z,6.32
2022-10-13T02:45:10.511Z,6.95
2022-10-13T02:47:37.233Z,8.20
2022-10-13T02:50:04.971Z,13.98
2022-10-13T02:52:31.514Z,7.07
2022-10-13T02:54:58.066Z,7.43
2022-10-13T02:57:24.731Z,6.85
2022-10-13T02:59:51.272Z,7.82
2022-10-13T03:02:19.130Z,6.05
2022-10-13T03:04:46.303Z,6.22
2022-10-13T03:07:12.923Z,5.80
2022-10-13T03:09:39.474Z,6.07
2022-10-13T03:12:06.521Z,5.65
2022-10-13T03:14:33.108Z,8.05
2022-10-13T03:16:59.663Z,8.93
2022-10-13T03:19:26.241Z,8.70
2022-10-13T03:21:52.750Z,6.47
2022-10-13T03:24:19.361Z,8.73
2022-10-13T03:26:45.935Z,7.43
2022-10-13T03:29:15.227Z,10.18
2022-10-13T03:31:42.225Z,21.35
2022-10-13T03:34:10.926Z,9.35
2022-10-13T03:36:37.911Z,10.73
2022-10-13T03:39:04.659Z,5.72
2022-10-13T03:41:31.220Z,6.00
2022-10-13T03:43:57.752Z,7.40
2022-10-13T03:46:28.071Z,10.45
2022-10-13T03:48:54.837Z,5.28
2022-10-13T03:51:23.096Z,12.15
2022-10-13T03:53:51.339Z,5.93
2022-10-13T03:56:24.173Z,5.97
2022-10-13T03:58:55.790Z,9.10
2022-10-13T04:01:24.464Z,5.15
2022-10-13T04:03:53.866Z,9.45
2022-10-13T04:06:20.550Z,4.82
2022-10-13T04:08:47.597Z,5.53
2022-10-13T04:11:16.124Z,8.63
2022-10-13T04:13:43.551Z,9.00
2022-10-13T04:16:15.366Z,6.85
2022-10-13T04:18:44.649Z,9.95
2022-10-13T04:21:14.018Z,14.35
2022-10-13T04:23:40.687Z,5.72
2022-10-13T04:26:07.444Z,9.40
2022-10-13T04:28:35.932Z,15.60
2022-10-13T04:31:03.655Z,9.63
2022-10-13T04:33:30.753Z,8.13
2022-10-13T04:35:57.545Z,6.82
2022-10-13T04:38:24.182Z,10.73
2022-10-13T04:40:50.710Z,8.95
2022-10-13T04:43:17.809Z,10.40
2022-10-13T04:45:44.920Z,7.68
2022-10-13T04:48:11.783Z,6.78
2022-10-13T04:50:38.297Z,8.80
2022-10-13T04:53:04.920Z,6.47
2022-10-13T04:55:31.496Z,12.27
2022-10-13T04:57:58.026Z,11.85
2022-10-13T05:00:24.623Z,8.10
2022-10-13T05:02:51.215Z,12.38
2022-10-13T05:05:17.910Z,14.50
2022-10-13T05:07:44.513Z,14.48
2022-10-13T05:10:11.061Z,11.85
2022-10-13T05:12:37.719Z,14.38
2022-10-13T05:15:04.514Z,16.65
2022-10-13T05:17:35.452Z,21.30
2022-10-13T05:20:02.652Z,10.85
2022-10-13T05:22:29.871Z,12.25
2022-10-13T05:24:56.454Z,9.88
2022-10-13T05:27:23.282Z,7.10
2022-10-13T05:29:49.859Z,13.57
2022-10-13T05:32:16.486Z,9.13
2022-10-13T05:34:43.159Z,8.98
2022-10-13T05:37:09.770Z,8.38
2022-10-13T05:39:36.367Z,8.93
2022-10-13T05:42:03.002Z,9.57
2022-10-13T05:44:29.913Z,11.68
2022-10-13T05:46:56.945Z,9.82
2022-10-13T05:49:23.521Z,9.45
2022-10-13T05:51:55.460Z,14.18
2022-10-13T05:54:30.032Z,12.48
2022-10-13T05:57:08.654Z,10.10
2022-10-13T05:59:39.878Z,8.10
2022-10-13T06:02:09.820Z,7.95
2022-10-13T06:04:41.567Z,12.38
2022-10-13T06:07:09.825Z,9.07
2022-10-13T06:09:38.118Z,9.23
2022-10-13T06:12:05.921Z,6.85
2022-10-13T06:14:33.294Z,9.43
2022-10-13T06:16:59.870Z,6.93
2022-10-13T06:19:26.488Z,6.88
2022-10-13T06:21:53.013Z,8.48
2022-10-13T06:24:19.673Z,8.10
2022-10-13T06:26:46.188Z,8.48
2022-10-13T06:29:12.751Z,8.88
2022-10-13T06:31:39.342Z,10.55
2022-10-13T06:34:05.879Z,10.80
2022-10-13T06:36:32.411Z,12.10
2022-10-13T06:38:58.970Z,12.13
2022-10-13T06:41:25.508Z,10.13
2022-10-13T06:43:52.043Z,14.38
2022-10-13T06:46:18.686Z,13.10
2022-10-13T06:48:45.305Z,9.82
2022-10-13T06:51:12.288Z,13.77
2022-10-13T06:53:38.898Z,7.10
2022-10-13T06:56:08.378Z,11.23
2022-10-13T07:35:30.277Z,14.10
2022-10-13T07:37:57.400Z,14.50
2022-10-13T07:40:24.124Z,8.10
2022-10-13T07:42:50.749Z,9.40
2022-10-13T07:45:17.342Z,9.20
2022-10-13T07:47:43.930Z,7.95
2022-10-13T07:50:10.708Z,6.57
2022-10-13T07:52:37.286Z,12.20
2022-10-13T07:55:04.253Z,21.33
2022-10-13T07:57:30.854Z,13.10
2022-10-13T07:59:57.440Z,6.95
2022-10-13T08:02:24.083Z,9.00
2022-10-13T08:04:50.644Z,7.97
2022-10-13T08:07:17.804Z,16.17
2022-10-13T08:09:44.998Z,8.30
2022-10-13T08:12:12.274Z,11.40
2022-10-13T08:14:38.897Z,6.90
2022-10-13T08:17:05.548Z,19.05
2022-10-13T08:19:32.223Z,12.32
2022-10-13T08:22:00.012Z,12.80
2022-10-13T08:24:27.901Z,7.40
2022-10-13T08:26:54.716Z,11.85
2022-10-13T08:29:23.137Z,11.00
2022-10-13T08:31:52.868Z,16.38
2022-10-13T08:34:20.500Z,8.38
2022-10-13T08:36:47.427Z,8.02
2022-10-13T08:39:14.461Z,18.00
2022-10-13T08:41:44.243Z,11.10
2022-10-13T08:47:27.490Z,7.60
2022-10-13T08:50:00.468Z,7.07
2022-10-13T08:52:30.444Z,7.70
2022-10-13T08:54:58.460Z,9.13
2022-10-13T08:57:25.066Z,7.80
2022-10-13T08:59:52.496Z,5.25
2022-10-13T09:02:26.460Z,7.10
2022-10-13T09:04:53.834Z,16.30
2022-10-13T09:07:28.358Z,6.78
2022-10-13T09:09:56.170Z,6.80
2022-10-13T09:12:25.021Z,6.00
2022-10-13T09:15:05.322Z,4.00
2022-10-13T09:17:33.566Z,7.32
2022-10-13T09:20:20.410Z,6.18
2022-10-13T09:23:06.896Z,7.15
2022-10-13T09:25:51.256Z,8.52
2022-10-13T09:28:30.024Z,4.95
2022-10-13T09:31:22.263Z,6.15
2022-10-13T09:34:01.095Z,6.78
2022-10-13T09:36:28.708Z,9.68
2022-10-13T09:39:08.433Z,9.80
2022-10-13T09:41:35.898Z,11.93
2022-10-13T09:44:30.311Z,3.90
2022-10-13T09:46:59.594Z,6.93
2022-10-13T09:49:44.578Z,8.10
2022-10-13T09:52:14.156Z,6.10
2022-10-13T09:54:44.894Z,10.40
2022-10-13T09:57:18.616Z,5.28
2022-10-13T10:00:25.562Z,6.50
2022-10-13T10:03:15.436Z,8.10
2022-10-13T10:05:51.070Z,7.10
2022-10-13T10:08:25.367Z,4.43
2022-10-13T10:11:10.445Z,7.28
2022-10-13T10:13:37.022Z,4.47
2022-10-13T10:16:18.761Z,5.47
2022-10-13T10:18:53.861Z,4.82
2022-10-13T10:21:37.005Z,8.45
2022-10-13T10:24:36.578Z,7.70
2022-10-13T10:27:13.657Z,4.95
2022-10-13T10:30:02.149Z,6.13
2022-10-13T10:32:47.660Z,4.82
2022-10-13T10:35:44.394Z,4.50
2022-10-13T10:38:13.886Z,4.03
2022-10-13T10:41:02.293Z,8.27
2022-10-13T10:43:51.914Z,3.88
2022-10-13T10:46:24.140Z,8.18
2022-10-13T10:48:57.319Z,11.40
2022-10-13T10:51:36.767Z,9.13
2022-10-13T10:54:24.496Z,7.32
2022-10-13T10:57:08.812Z,11.38
2022-10-13T11:00:03.889Z,6.07
2022-10-13T11:02:45.600Z,5.63
2022-10-13T11:05:12.795Z,5.60
2022-10-13T11:07:39.254Z,4.50
2022-10-13T11:10:16.510Z,5.32
2022-10-13T11:12:51.871Z,5.07
2022-10-13T11:15:25.045Z,7.93
2022-10-13T11:17:52.204Z,4.80
2022-10-13T11:20:21.451Z,4.30
2022-10-13T11:23:00.128Z,6.80
2022-10-13T11:25:44.470Z,8.88
2022-10-13T11:28:23.011Z,5.07
2022-10-13T11:30:55.398Z,3.50
2022-10-13T11:33:40.441Z,5.38
2022-10-13T11:36:31.465Z,4.25
2022-10-13T11:39:14.706Z,10.88
2022-10-13T11:41:55.167Z,4.47
2022-10-13T11:47:01.357Z,5.28
2022-10-13T11:49:55.717Z,7.18
2022-10-13T11:52:31.355Z,7.20
2022-10-13T11:55:29.924Z,9.07
2022-10-13T11:58:33.479Z,9.23
2022-10-13T12:01:06.538Z,6.95
2022-10-13T12:03:36.402Z,4.15
2022-10-13T12:06:33.161Z,3.58
2022-10-13T12:11:35.386Z,7.63
2022-10-13T12:14:04.276Z,11.32
2022-10-13T12:16:30.835Z,5.40
2022-10-13T12:19:22.468Z,4.13
2022-10-13T12:21:54.831Z,6.80
2022-10-13T12:24:26.989Z,7.65
2022-10-13T12:26:54.372Z,9.63
2022-10-13T12:29:25.625Z,3.63
2022-10-13T12:31:52.645Z,6.63
2022-10-13T12:34:28.953Z,3.22
2022-10-13T12:36:59.873Z,3.85
2022-10-13T12:39:31.841Z,4.55
2022-10-13T12:42:00.741Z,6.65
2022-10-13T12:44:30.378Z,4.85
2022-10-13T12:46:59.287Z,8.27
2022-10-13T12:49:29.156Z,6.50
2022-10-13T12:52:04.206Z,3.58
2022-10-13T12:54:33.604Z,3.28
2022-10-13T12:57:20.567Z,4.15
2022-10-13T12:59:47.879Z,3.88
2022-10-13T13:02:24.951Z,2.58
2022-10-13T13:04:51.774Z,3.80
2022-10-13T13:07:29.137Z,2.25
2022-10-13T13:10:17.242Z,4.65
2022-10-13T13:12:44.185Z,5.57
2022-10-13T13:15:25.793Z,7.00
2022-10-13T13:17:58.448Z,6.97
2022-10-13T13:20:33.873Z,5.75
2022-10-13T13:23:00.901Z,8.23
2022-10-13T13:25:27.592Z,5.10
2022-10-13T13:27:54.443Z,15.75
2022-10-13T13:30:23.320Z,6.00
2022-10-13T13:32:50.202Z,3.95
2022-10-13T13:35:17.185Z,6.13
2022-10-13T13:37:48.869Z,4.28
2022-10-13T13:40:18.375Z,9.10
2022-10-13T13:42:45.033Z,9.43
2022-10-13T13:45:15.818Z,10.75
2022-10-13T13:47:42.813Z,7.45
2022-10-13T13:50:27.522Z,7.90
2022-10-13T13:52:54.481Z,4.47
2022-10-13T13:55:22.427Z,9.27
2022-10-13T13:57:48.971Z,5.53
2022-10-13T14:00:17.488Z,9.60
2022-10-13T14:02:44.625Z,12.82
2022-10-13T14:05:12.334Z,10.85
2022-10-13T14:07:39.688Z,8.25
2022-10-13T14:10:08.207Z,9.20
2022-10-13T14:12:34.804Z,3.90
2022-10-13T14:15:01.386Z,3.72
2022-10-13T14:17:28.252Z,7.57
2022-10-13T14:19:55.153Z,4.57
2022-10-13T14:22:22.720Z,11.52
2022-10-13T14:24:49.751Z,4.88
2022-10-13T14:27:16.368Z,5.00
2022-10-13T14:29:42.990Z,4.63
2022-10-13T14:32:09.580Z,6.22
2022-10-13T14:34:36.225Z,5.97
2022-10-13T14:37:02.891Z,6.60
2022-10-13T14:39:29.711Z,5.00
2022-10-13T14:41:56.269Z,4.50
2022-10-13T14:44:22.840Z,5.47
2022-10-13T14:46:49.393Z,5.00
2022-10-13T14:49:15.919Z,8.55
2022-10-13T14:51:42.620Z,3.63
2022-10-13T14:54:09.245Z,10.75
2022-10-13T14:56:36.370Z,3.20
2022-10-13T14:59:05.743Z,5.72
2022-10-13T15:01:33.470Z,5.15
2022-10-13T15:04:01.422Z,3.42
2022-10-13T15:06:28.070Z,5.80
2022-10-13T15:08:55.348Z,6.50
2022-10-13T15:11:22.665Z,5.38
2022-10-13T15:13:49.438Z,13.65
2022-10-13T15:16:19.346Z,7.60
2022-10-13T15:18:46.491Z,12.23
2022-10-13T15:21:13.112Z,6.88
2022-10-13T15:23:39.960Z,4.40
2022-10-13T15:26:07.003Z,5.32
2022-10-13T15:28:39.787Z,4.43
2022-10-13T15:31:07.069Z,5.57
2022-10-13T15:33:34.374Z,9.38
2022-10-13T15:36:00.989Z,8.13
2022-10-13T15:38:27.826Z,4.13
2022-10-13T15:41:02.537Z,9.00
2022-10-13T15:43:29.653Z,4.32
2022-10-13T15:46:07.952Z,7.47
2022-10-13T15:48:35.369Z,19.88
2022-10-13T15:51:08.547Z,4.05
2022-10-13T15:53:35.073Z,7.47
2022-10-13T15:56:02.622Z,5.07
2022-10-13T15:58:29.238Z,21.20
2022-10-13T16:00:55.829Z,4.30
2022-10-13T16:03:22.422Z,4.95
2022-10-13T16:05:48.996Z,3.88
2022-10-13T16:08:15.591Z,10.18
2022-10-13T16:10:42.927Z,5.28
2022-10-13T16:13:13.943Z,16.05
2022-10-13T16:15:40.691Z,4.43
2022-10-13T16:18:07.963Z,3.70
2022-10-13T16:20:37.743Z,5.22
2022-10-13T16:23:04.871Z,7.00
2022-10-13T16:25:32.092Z,7.95
2022-10-13T16:28:01.666Z,16.90
2022-10-13T16:30:30.331Z,5.30
2022-10-13T16:32:58.051Z,10.20
2022-10-13T16:35:24.889Z,3.28
2022-10-13T16:37:51.463Z,3.92
2022-10-13T16:40:17.994Z,4.72
2022-10-13T16:42:45.426Z,6.00
2022-10-13T16:45:13.110Z,7.63
2022-10-13T16:47:39.648Z,5.82
2022-10-13T16:50:09.684Z,7.20
2022-10-13T16:52:37.435Z,5.03
2022-10-13T16:55:05.505Z,6.60
2022-10-13T16:57:32.701Z,13.63
2022-10-13T16:59:59.316Z,13.77
2022-10-13T17:02:25.866Z,6.47
2022-10-13T17:04:52.537Z,13.57
2022-10-13T17:07:19.333Z,7.57
2022-10-13T17:09:47.197Z,8.15
2022-10-13T17:12:13.887Z,9.88
2022-10-13T17:14:40.418Z,10.35
2022-10-13T17:17:06.936Z,5.15
2022-10-13T17:19:33.661Z,9.88
2022-10-13T17:22:00.498Z,7.90
2022-10-13T17:24:27.082Z,6.35
2022-10-13T17:26:53.653Z,7.70
2022-10-13T17:29:20.199Z,9.10
2022-10-13T17:31:46.836Z,7.15
2022-10-13T17:34:13.516Z,7.93
2022-10-13T17:36:40.045Z,11.88
2022-10-13T17:39:08.303Z,10.18
2022-10-13T17:41:35.348Z,11.90
2022-10-13T17:44:02.085Z,8.45
2022-10-13T17:46:39.275Z,17.65
2022-10-13T17:49:10.181Z,8.93
2022-10-13T17:51:36.915Z,9.88
2022-10-13T17:54:03.987Z,9.00
2022-10-13T17:56:30.726Z,7.45
2022-10-13T17:58:57.521Z,6.88
2022-10-13T18:01:29.924Z,16.35
2022-10-13T18:03:59.425Z,12.20
2022-10-13T18:06:36.770Z,16.10
2022-10-13T18:09:10.075Z,12.55
2022-10-13T18:11:37.263Z,12.65
2022-10-13T18:14:04.776Z,9.45
2022-10-13T18:16:32.115Z,13.30
2022-10-13T18:18:58.795Z,9.88
2022-10-13T18:21:28.418Z,8.30
2022-10-13T18:24:00.214Z,14.00
2022-10-13T18:26:29.047Z,12.18
2022-10-13T18:28:56.914Z,19.13
2022-10-13T18:31:29.378Z,10.05
2022-10-13T18:33:57.414Z,11.63
2022-10-13T18:36:29.633Z,9.88
2022-10-13T18:39:06.291Z,10.90
2022-10-13T18:41:35.660Z,10.15
2022-10-13T18:44:03.918Z,11.30
2022-10-13T18:46:31.514Z,13.02
2022-10-13T18:48:58.333Z,10.73
2022-10-13T18:51:25.694Z,13.70
2022-10-13T18:53:52.360Z,14.95
2022-10-13T18:56:24.164Z,15.13
2022-10-13T18:58:56.995Z,12.00
2022-10-13T19:01:27.026Z,12.37
2022-10-13T19:03:54.232Z,13.70
2022-10-13T19:06:26.766Z,9.63
2022-10-13T19:09:00.846Z,14.13
2022-10-13T19:11:28.759Z,13.43
2022-10-13T19:13:55.905Z,11.65
2022-10-13T19:16:24.268Z,16.70
2022-10-13T19:18:51.159Z,15.85
2022-10-13T19:21:19.722Z,19.05
2022-10-13T19:23:46.945Z,16.30
2022-10-13T19:26:20.926Z,15.05
2022-10-13T19:28:48.075Z,16.67
2022-10-13T19:31:17.870Z,10.02
2022-10-13T19:33:47.091Z,12.32
2022-10-13T19:36:22.038Z,16.83
2022-10-13T19:38:48.834Z,41.78
2022-10-13T19:41:15.473Z,37.13
2022-10-13T19:43:42.051Z,31.77
2022-10-13T19:46:08.906Z,23.98
2022-10-13T19:48:35.653Z,18.02
2022-10-13T19:51:05.849Z,24.02
2022-10-13T19:53:33.417Z,21.92
2022-10-13T19:56:00.018Z,13.05
2022-10-13T19:58:26.572Z,19.85
2022-10-13T20:00:53.252Z,14.50
2022-10-13T20:03:19.916Z,15.35
2022-10-13T20:05:46.478Z,12.65
2022-10-13T20:08:13.798Z,12.82
2022-10-13T20:10:42.093Z,14.13
2022-10-13T20:13:10.029Z,17.40
2022-10-13T20:15:41.516Z,11.07
2022-10-13T20:18:09.550Z,13.93
2022-10-13T20:20:36.800Z,13.70
2022-10-13T20:23:03.424Z,12.70
2022-10-13T20:25:30.048Z,24.80
2022-10-13T20:27:56.663Z,14.77
2022-10-13T20:30:23.223Z,18.67
2022-10-13T20:32:49.791Z,17.45
2022-10-13T20:35:16.352Z,16.27
2022-10-13T20:37:42.899Z,14.73
2022-10-13T20:40:09.710Z,19.42
2022-10-13T20:42:36.254Z,19.98
2022-10-13T20:45:03.038Z,27.73
2022-10-13T20:47:29.931Z,19.15
2022-10-13T20:49:56.463Z,22.80
2022-10-13T20:52:23.016Z,22.77
2022-10-13T20:54:49.632Z,17.27
2022-10-13T20:57:16.209Z,17.08
2022-10-13T20:59:42.734Z,32.55
2022-10-13T21:02:13.104Z,16.42
2022-10-13T21:04:39.770Z,17.00
2022-10-13T21:07:06.294Z,25.85
2022-10-13T21:09:35.168Z,20.33
2022-10-13T21:12:01.722Z,16.98
2022-10-13T21:14:28.291Z,17.02
2022-10-13T21:16:55.321Z,19.75
2022-10-13T21:19:21.837Z,17.15
2022-10-13T21:21:48.495Z,22.33
2022-10-13T21:24:15.054Z,27.50
2022-10-13T21:26:41.739Z,18.90
2022-10-13T21:29:08.279Z,16.63
2022-10-13T21:31:35.739Z,20.70
2022-10-13T21:34:02.376Z,17.73
2022-10-13T21:36:31.169Z,26.48
2022-10-13T21:39:04.023Z,21.00
2022-10-13T21:41:30.637Z,19.50
2022-10-13T21:43:57.564Z,21.77
2022-10-13T21:46:27.177Z,16.10
2022-10-13T21:48:56.536Z,17.55
2022-10-13T21:51:25.921Z,22.40
2022-10-13T21:53:55.336Z,18.75
2022-10-13T21:56:23.245Z,22.08
2022-10-13T21:58:49.809Z,18.15
2022-10-13T22:01:18.199Z,16.67
2022-10-13T22:03:47.110Z,18.63
2022-10-13T22:06:19.160Z,22.23
2022-10-13T22:08:48.887Z,23.63
2022-10-13T22:11:17.598Z,23.98
2022-10-13T22:13:44.580Z,19.70
2022-10-13T22:16:12.574Z,26.92
2022-10-13T22:18:39.182Z,21.40
2022-10-13T22:21:12.641Z,28.13
2022-10-13T22:23:39.376Z,25.65
2022-10-13T22:26:05.975Z,22.20
2022-10-13T22:28:37.030Z,18.67
2022-10-13T22:31:10.356Z,15.48
2022-10-13T22:33:38.457Z,23.50
2022-10-13T22:36:15.476Z,19.02
2022-10-13T22:38:42.880Z,19.23
2022-10-13T22:41:10.559Z,21.40
2022-10-13T22:43:37.473Z,23.45
2022-10-13T22:46:04.950Z,19.42
2022-10-13T22:48:35.827Z,15.85
2022-10-13T22:51:06.118Z,20.60
2022-10-13T22:53:33.972Z,16.58
2022-10-13T22:56:05.961Z,23.70
2022-10-13T22:58:32.550Z,18.77
2022-10-13T23:01:08.657Z,14.50
2022-10-13T23:03:36.445Z,21.67
2022-10-13T23:06:03.981Z,19.25
2022-10-13T23:08:30.548Z,18.35
2022-10-13T23:10:57.981Z,16.85
2022-10-13T23:13:24.749Z,18.20
2022-10-13T23:15:51.312Z,15.50
2022-10-13T23:18:18.089Z,16.55
2022-10-13T23:20:44.617Z,33.17
2022-10-13T23:23:11.182Z,18.83
2022-10-13T23:25:38.093Z,18.75
2022-10-13T23:28:05.022Z,18.08
2022-10-13T23:30:31.582Z,17.15
2022-10-13T23:32:58.146Z,15.25
2022-10-13T23:35:24.820Z,21.67
2022-10-13T23:37:54.178Z,22.55
2022-10-13T23:40:20.752Z,19.48
2022-10-13T23:42:47.675Z,13.27
2022-10-13T23:45:14.346Z,19.90
2022-10-13T23:47:40.926Z,21.30
2022-10-13T23:50:07.697Z,24.90
2022-10-13T23:52:34.286Z,24.02
2022-10-13T23:55:00.940Z,22.13
2022-10-13T23:57:29.794Z,17.23
2022-10-13T23:59:56.334Z,16.50
